sensor_id;sensor_type;location;lat;lon;timestamp;P1;durP1;ratioP1;P2;durP2;ratioP2
64712;SDS011;51140;45.340;5.980;2023-04-15T00:02:21;5.70;;;1.70;;
64712;SDS011;51140;45.340;5.980;2023-04-15T00:04:47;4.90;;;1.50;;
64712;SDS011;51140;45.340;5.980;2023-04-15T00:07:13;4.13;;;1.30;;
64712;SDS011;51140;45.340;5.980;2023-04-15T00:09:39;5.82;;;1.60;;
64712;SDS011;51140;45.340;5.980;2023-04-15T00:12:06;3.80;;;1.55;;
64712;SDS011;51140;45.340;5.980;2023-04-15T00:14:32;5.38;;;1.80;;
64712;SDS011;51140;45.340;5.980;2023-04-15T00:17:00;7.07;;;1.85;;
64712;SDS011;51140;45.340;5.980;2023-04-15T00:19:27;5.32;;;2.00;;
64712;SDS011;51140;45.340;5.980;2023-04-15T00:21:53;5.60;;;1.95;;
64712;SDS011;51140;45.340;5.980;2023-04-15T00:24:19;5.63;;;2.05;;
64712;SDS011;51140;45.340;5.980;2023-04-15T00:26:44;6.63;;;2.55;;
64712;SDS011;51140;45.340;5.980;2023-04-15T00:29:09;6.88;;;2.55;;
64712;SDS011;51140;45.340;5.980;2023-04-15T00:31:35;6.80;;;2.30;;
64712;SDS011;51140;45.340;5.980;2023-04-15T00:34:00;6.90;;;2.65;;
64712;SDS011;51140;45.340;5.980;2023-04-15T00:36:26;5.80;;;2.70;;
64712;SDS011;51140;45.340;5.980;2023-04-15T00:38:51;6.03;;;2.92;;
64712;SDS011;51140;45.340;5.980;2023-04-15T00:41:17;7.43;;;3.20;;
64712;SDS011;51140;45.340;5.980;2023-04-15T00:43:43;8.20;;;3.10;;
64712;SDS011;51140;45.340;5.980;2023-04-15T00:46:08;6.40;;;2.80;;
64712;SDS011;51140;45.340;5.980;2023-04-15T00:48:37;8.55;;;3.30;;
64712;SDS011;51140;45.340;5.980;2023-04-15T00:51:03;9.82;;;3.08;;
64712;SDS011;51140;45.340;5.980;2023-04-15T00:53:28;11.75;;;4.00;;
64712;SDS011;51140;45.340;5.980;2023-04-15T00:55:53;11.15;;;3.97;;
64712;SDS011;51140;45.340;5.980;2023-04-15T00:58:20;9.63;;;3.78;;
64712;SDS011;51140;45.340;5.980;2023-04-15T01:00:45;7.35;;;3.13;;
64712;SDS011;51140;45.340;5.980;2023-04-15T01:03:11;7.18;;;2.95;;
64712;SDS011;51140;45.340;5.980;2023-04-15T01:05:38;6.95;;;2.30;;
64712;SDS011;51140;45.340;5.980;2023-04-15T01:08:03;5.72;;;1.80;;
64712;SDS011;51140;45.340;5.980;2023-04-15T01:10:30;9.70;;;1.90;;
64712;SDS011;51140;45.340;5.980;2023-04-15T01:12:56;9.20;;;2.40;;
64712;SDS011;51140;45.340;5.980;2023-04-15T01:15:22;8.27;;;2.25;;
64712;SDS011;51140;45.340;5.980;2023-04-15T01:17:48;6.97;;;2.50;;
64712;SDS011;51140;45.340;5.980;2023-04-15T01:20:14;7.03;;;2.72;;
64712;SDS011;51140;45.340;5.980;2023-04-15T01:22:40;6.45;;;2.50;;
64712;SDS011;51140;45.340;5.980;2023-04-15T01:25:09;8.48;;;2.70;;
64712;SDS011;51140;45.340;5.980;2023-04-15T01:27:38;8.70;;;2.72;;
64712;SDS011;51140;45.340;5.980;2023-04-15T01:30:05;4.55;;;1.58;;
64712;SDS011;51140;45.340;5.980;2023-04-15T01:32:31;6.70;;;1.67;;
64712;SDS011;51140;45.340;5.980;2023-04-15T01:34:57;6.32;;;1.75;;
64712;SDS011;51140;45.340;5.980;2023-04-15T01:37:22;7.25;;;2.15;;
64712;SDS011;51140;45.340;5.980;2023-04-15T01:39:48;4.88;;;1.50;;
64712;SDS011;51140;45.340;5.980;2023-04-15T01:42:14;7.75;;;1.90;;
64712;SDS011;51140;45.340;5.980;2023-04-15T01:44:39;3.92;;;1.45;;
64712;SDS011;51140;45.340;5.980;2023-04-15T01:47:05;7.72;;;3.30;;
64712;SDS011;51140;45.340;5.980;2023-04-15T01:49:30;5.70;;;2.08;;
64712;SDS011;51140;45.340;5.980;2023-04-15T01:51:56;6.38;;;2.38;;
64712;SDS011;51140;45.340;5.980;2023-04-15T01:54:21;9.80;;;4.03;;
64712;SDS011;51140;45.340;5.980;2023-04-15T01:56:47;9.40;;;3.88;;
64712;SDS011;51140;45.340;5.980;2023-04-15T01:59:12;8.27;;;3.75;;
64712;SDS011;51140;45.340;5.980;2023-04-15T02:01:38;11.35;;;4.68;;
64712;SDS011;51140;45.340;5.980;2023-04-15T02:04:03;10.18;;;3.22;;
64712;SDS011;51140;45.340;5.980;2023-04-15T02:06:29;7.65;;;3.30;;
64712;SDS011;51140;45.340;5.980;2023-04-15T02:08:54;8.02;;;3.28;;
64712;SDS011;51140;45.340;5.980;2023-04-15T02:11:19;5.78;;;2.22;;
64712;SDS011;51140;45.340;5.980;2023-04-15T02:13:45;6.75;;;2.50;;
64712;SDS011;51140;45.340;5.980;2023-04-15T02:16:14;6.22;;;2.28;;
64712;SDS011;51140;45.340;5.980;2023-04-15T02:18:41;5.10;;;1.98;;
64712;SDS011;51140;45.340;5.980;2023-04-15T02:21:08;4.28;;;1.52;;
64712;SDS011;51140;45.340;5.980;2023-04-15T02:23:33;5.80;;;2.50;;
64712;SDS011;51140;45.340;5.980;2023-04-15T02:25:59;7.03;;;2.58;;
64712;SDS011;51140;45.340;5.980;2023-04-15T02:28:24;7.47;;;2.40;;
64712;SDS011;51140;45.340;5.980;2023-04-15T02:30:51;6.32;;;2.30;;
64712;SDS011;51140;45.340;5.980;2023-04-15T02:33:17;5.60;;;1.80;;
64712;SDS011;51140;45.340;5.980;2023-04-15T02:35:43;5.43;;;1.60;;
64712;SDS011;51140;45.340;5.980;2023-04-15T02:38:09;4.43;;;1.45;;
64712;SDS011;51140;45.340;5.980;2023-04-15T02:40:35;5.97;;;1.50;;
64712;SDS011;51140;45.340;5.980;2023-04-15T02:43:01;6.38;;;2.35;;
64712;SDS011;51140;45.340;5.980;2023-04-15T02:45:27;4.85;;;1.90;;
64712;SDS011;51140;45.340;5.980;2023-04-15T02:47:53;7.05;;;2.55;;
64712;SDS011;51140;45.340;5.980;2023-04-15T02:50:18;6.55;;;2.45;;
64712;SDS011;51140;45.340;5.980;2023-04-15T02:52:44;9.07;;;2.75;;
64712;SDS011;51140;45.340;5.980;2023-04-15T02:55:10;9.65;;;2.80;;
64712;SDS011;51140;45.340;5.980;2023-04-15T02:57:36;5.47;;;2.40;;
64712;SDS011;51140;45.340;5.980;2023-04-15T03:00:03;6.03;;;2.40;;
64712;SDS011;51140;45.340;5.980;2023-04-15T03:02:33;7.40;;;2.55;;
64712;SDS011;51140;45.340;5.980;2023-04-15T03:05:01;5.90;;;2.60;;
64712;SDS011;51140;45.340;5.980;2023-04-15T03:07:27;7.20;;;2.60;;
64712;SDS011;51140;45.340;5.980;2023-04-15T03:09:53;5.38;;;2.22;;
64712;SDS011;51140;45.340;5.980;2023-04-15T03:12:18;5.85;;;2.35;;
64712;SDS011;51140;45.340;5.980;2023-04-15T03:14:43;6.15;;;2.60;;
64712;SDS011;51140;45.340;5.980;2023-04-15T03:17:09;7.03;;;2.63;;
64712;SDS011;51140;45.340;5.980;2023-04-15T03:19:34;9.10;;;2.30;;
64712;SDS011;51140;45.340;5.980;2023-04-15T03:22:00;9.35;;;3.17;;
64712;SDS011;51140;45.340;5.980;2023-04-15T03:24:25;6.38;;;2.88;;
64712;SDS011;51140;45.340;5.980;2023-04-15T03:26:51;7.20;;;3.05;;
64712;SDS011;51140;45.340;5.980;2023-04-15T03:29:16;7.40;;;3.42;;
64712;SDS011;51140;45.340;5.980;2023-04-15T03:31:41;8.55;;;4.20;;
64712;SDS011;51140;45.340;5.980;2023-04-15T03:34:07;8.38;;;3.72;;
64712;SDS011;51140;45.340;5.980;2023-04-15T03:36:32;9.02;;;3.78;;
64712;SDS011;51140;45.340;5.980;2023-04-15T03:38:58;8.57;;;4.15;;
64712;SDS011;51140;45.340;5.980;2023-04-15T03:41:23;8.05;;;3.42;;
64712;SDS011;51140;45.340;5.980;2023-04-15T03:43:49;8.85;;;3.45;;
64712;SDS011;51140;45.340;5.980;2023-04-15T03:46:16;8.13;;;3.50;;
64712;SDS011;51140;45.340;5.980;2023-04-15T03:48:42;8.25;;;3.15;;
64712;SDS011;51140;45.340;5.980;2023-04-15T03:51:07;8.68;;;3.30;;
64712;SDS011;51140;45.340;5.980;2023-04-15T03:53:32;7.88;;;3.60;;
64712;SDS011;51140;45.340;5.980;2023-04-15T03:55:58;8.57;;;3.95;;
64712;SDS011;51140;45.340;5.980;2023-04-15T03:58:23;9.65;;;3.80;;
64712;SDS011;51140;45.340;5.980;2023-04-15T04:00:48;10.55;;;4.45;;
64712;SDS011;51140;45.340;5.980;2023-04-15T04:03:14;9.35;;;4.30;;
64712;SDS011;51140;45.340;5.980;2023-04-15T04:05:39;11.73;;;5.07;;
64712;SDS011;51140;45.340;5.980;2023-04-15T04:08:05;12.65;;;6.07;;
64712;SDS011;51140;45.340;5.980;2023-04-15T04:10:31;10.60;;;5.78;;
64712;SDS011;51140;45.340;5.980;2023-04-15T04:12:57;11.35;;;5.82;;
64712;SDS011;51140;45.340;5.980;2023-04-15T04:15:22;10.45;;;5.03;;
64712;SDS011;51140;45.340;5.980;2023-04-15T04:17:47;11.13;;;5.13;;
64712;SDS011;51140;45.340;5.980;2023-04-15T04:20:13;10.30;;;4.68;;
64712;SDS011;51140;45.340;5.980;2023-04-15T04:22:38;9.65;;;4.75;;
64712;SDS011;51140;45.340;5.980;2023-04-15T04:25:05;11.63;;;4.65;;
64712;SDS011;51140;45.340;5.980;2023-04-15T04:27:32;10.43;;;4.38;;
64712;SDS011;51140;45.340;5.980;2023-04-15T04:29:58;9.32;;;4.90;;
64712;SDS011;51140;45.340;5.980;2023-04-15T04:32:23;9.52;;;5.20;;
64712;SDS011;51140;45.340;5.980;2023-04-15T04:34:49;13.82;;;7.18;;
64712;SDS011;51140;45.340;5.980;2023-04-15T04:37:14;11.43;;;6.18;;
64712;SDS011;51140;45.340;5.980;2023-04-15T04:39:40;13.70;;;7.70;;
64712;SDS011;51140;45.340;5.980;2023-04-15T04:42:05;15.55;;;9.00;;
64712;SDS011;51140;45.340;5.980;2023-04-15T04:44:31;15.13;;;7.93;;
64712;SDS011;51140;45.340;5.980;2023-04-15T04:46:56;18.08;;;8.88;;
64712;SDS011;51140;45.340;5.980;2023-04-15T04:49:21;13.45;;;7.45;;
64712;SDS011;51140;45.340;5.980;2023-04-15T04:51:47;11.90;;;6.82;;
64712;SDS011;51140;45.340;5.980;2023-04-15T04:54:12;15.82;;;7.05;;
64712;SDS011;51140;45.340;5.980;2023-04-15T04:56:38;11.20;;;6.57;;
64712;SDS011;51140;45.340;5.980;2023-04-15T04:59:04;13.75;;;6.78;;
64712;SDS011;51140;45.340;5.980;2023-04-15T05:01:29;12.10;;;5.72;;
64712;SDS011;51140;45.340;5.980;2023-04-15T05:03:55;10.45;;;6.05;;
64712;SDS011;51140;45.340;5.980;2023-04-15T05:06:20;17.13;;;5.75;;
64712;SDS011;51140;45.340;5.980;2023-04-15T05:08:46;10.23;;;5.90;;
64712;SDS011;51140;45.340;5.980;2023-04-15T05:11:12;17.20;;;6.95;;
64712;SDS011;51140;45.340;5.980;2023-04-15T05:13:37;11.85;;;5.88;;
64712;SDS011;51140;45.340;5.980;2023-04-15T05:16:06;10.93;;;5.88;;
64712;SDS011;51140;45.340;5.980;2023-04-15T05:18:31;9.95;;;4.60;;
64712;SDS011;51140;45.340;5.980;2023-04-15T05:20:57;8.70;;;4.97;;
64712;SDS011;51140;45.340;5.980;2023-04-15T05:23:23;10.52;;;5.30;;
64712;SDS011;51140;45.340;5.980;2023-04-15T05:25:48;9.27;;;4.95;;
64712;SDS011;51140;45.340;5.980;2023-04-15T05:28:13;11.88;;;6.03;;
64712;SDS011;51140;45.340;5.980;2023-04-15T05:30:39;9.35;;;5.57;;
64712;SDS011;51140;45.340;5.980;2023-04-15T05:33:05;13.82;;;7.30;;
64712;SDS011;51140;45.340;5.980;2023-04-15T05:35:30;15.90;;;7.28;;
64712;SDS011;51140;45.340;5.980;2023-04-15T05:37:55;21.80;;;12.45;;
64712;SDS011;51140;45.340;5.980;2023-04-15T05:40:21;16.48;;;7.82;;
64712;SDS011;51140;45.340;5.980;2023-04-15T05:42:46;15.88;;;7.18;;
64712;SDS011;51140;45.340;5.980;2023-04-15T05:45:12;13.70;;;6.50;;
64712;SDS011;51140;45.340;5.980;2023-04-15T05:47:37;10.18;;;5.40;;
64712;SDS011;51140;45.340;5.980;2023-04-15T05:50:03;13.32;;;6.30;;
64712;SDS011;51140;45.340;5.980;2023-04-15T05:52:29;10.77;;;5.78;;
64712;SDS011;51140;45.340;5.980;2023-04-15T05:54:55;10.68;;;5.28;;
64712;SDS011;51140;45.340;5.980;2023-04-15T05:57:20;9.82;;;4.72;;
64712;SDS011;51140;45.340;5.980;2023-04-15T05:59:46;9.20;;;5.30;;
64712;SDS011;51140;45.340;5.980;2023-04-15T06:02:11;19.58;;;9.90;;
64712;SDS011;51140;45.340;5.980;2023-04-15T06:04:37;24.58;;;13.60;;
64712;SDS011;51140;45.340;5.980;2023-04-15T06:07:03;20.20;;;11.90;;
64712;SDS011;51140;45.340;5.980;2023-04-15T06:09:28;12.10;;;5.20;;
64712;SDS011;51140;45.340;5.980;2023-04-15T06:11:54;9.95;;;4.88;;
64712;SDS011;51140;45.340;5.980;2023-04-15T06:14:21;9.77;;;4.25;;
64712;SDS011;51140;45.340;5.980;2023-04-15T06:16:46;7.03;;;3.95;;
64712;SDS011;51140;45.340;5.980;2023-04-15T06:19:11;7.97;;;3.65;;
64712;SDS011;51140;45.340;5.980;2023-04-15T06:21:38;11.25;;;4.25;;
64712;SDS011;51140;45.340;5.980;2023-04-15T06:24:03;8.55;;;4.50;;
64712;SDS011;51140;45.340;5.980;2023-04-15T06:26:29;8.65;;;3.88;;
64712;SDS011;51140;45.340;5.980;2023-04-15T06:28:55;7.30;;;3.72;;
64712;SDS011;51140;45.340;5.980;2023-04-15T06:31:21;8.70;;;4.03;;
64712;SDS011;51140;45.340;5.980;2023-04-15T06:33:46;9.00;;;4.43;;
64712;SDS011;51140;45.340;5.980;2023-04-15T06:36:11;14.68;;;6.05;;
64712;SDS011;51140;45.340;5.980;2023-04-15T06:38:37;12.15;;;5.93;;
64712;SDS011;51140;45.340;5.980;2023-04-15T06:41:03;9.13;;;4.40;;
64712;SDS011;51140;45.340;5.980;2023-04-15T06:43:28;11.10;;;5.20;;
64712;SDS011;51140;45.340;5.980;2023-04-15T06:45:54;9.90;;;4.97;;
64712;SDS011;51140;45.340;5.980;2023-04-15T06:48:20;9.35;;;4.57;;
64712;SDS011;51140;45.340;5.980;2023-04-15T06:50:46;9.20;;;4.20;;
64712;SDS011;51140;45.340;5.980;2023-04-15T06:53:12;8.50;;;4.00;;
64712;SDS011;51140;45.340;5.980;2023-04-15T06:55:37;9.20;;;4.47;;
64712;SDS011;51140;45.340;5.980;2023-04-15T06:58:03;9.00;;;4.20;;
64712;SDS011;51140;45.340;5.980;2023-04-15T07:00:28;7.88;;;3.10;;
64712;SDS011;51140;45.340;5.980;2023-04-15T07:02:54;9.93;;;4.22;;
64712;SDS011;51140;45.340;5.980;2023-04-15T07:05:20;9.40;;;3.53;;
64712;SDS011;51140;45.340;5.980;2023-04-15T07:07:45;5.45;;;2.03;;
64712;SDS011;51140;45.340;5.980;2023-04-15T07:10:11;7.57;;;2.20;;
64712;SDS011;51140;45.340;5.980;2023-04-15T07:12:36;7.78;;;2.95;;
64712;SDS011;51140;45.340;5.980;2023-04-15T07:15:02;5.88;;;2.25;;
64712;SDS011;51140;45.340;5.980;2023-04-15T07:17:28;6.53;;;2.17;;
64712;SDS011;51140;45.340;5.980;2023-04-15T07:19:53;6.13;;;2.28;;
64712;SDS011;51140;45.340;5.980;2023-04-15T07:22:18;4.47;;;1.70;;
64712;SDS011;51140;45.340;5.980;2023-04-15T07:24:44;3.08;;;1.38;;
64712;SDS011;51140;45.340;5.980;2023-04-15T07:27:10;5.35;;;1.63;;
64712;SDS011;51140;45.340;5.980;2023-04-15T07:29:36;3.42;;;1.48;;
64712;SDS011;51140;45.340;5.980;2023-04-15T07:32:01;3.63;;;1.45;;
64712;SDS011;51140;45.340;5.980;2023-04-15T07:34:27;4.13;;;1.63;;
64712;SDS011;51140;45.340;5.980;2023-04-15T07:36:52;6.28;;;1.60;;
64712;SDS011;51140;45.340;5.980;2023-04-15T07:39:18;3.05;;;1.20;;
64712;SDS011;51140;45.340;5.980;2023-04-15T07:41:43;3.92;;;1.20;;
64712;SDS011;51140;45.340;5.980;2023-04-15T07:44:09;4.25;;;1.30;;
64712;SDS011;51140;45.340;5.980;2023-04-15T07:46:35;3.65;;;1.50;;
64712;SDS011;51140;45.340;5.980;2023-04-15T07:49:02;5.97;;;2.50;;
64712;SDS011;51140;45.340;5.980;2023-04-15T07:51:28;4.97;;;2.08;;
64712;SDS011;51140;45.340;5.980;2023-04-15T07:53:53;7.68;;;3.55;;
64712;SDS011;51140;45.340;5.980;2023-04-15T07:56:19;8.13;;;4.50;;
64712;SDS011;51140;45.340;5.980;2023-04-15T07:58:44;9.60;;;4.45;;
64712;SDS011;51140;45.340;5.980;2023-04-15T08:01:10;9.15;;;4.00;;
64712;SDS011;51140;45.340;5.980;2023-04-15T08:03:35;7.15;;;2.90;;
64712;SDS011;51140;45.340;5.980;2023-04-15T08:06:01;4.15;;;1.92;;
64712;SDS011;51140;45.340;5.980;2023-04-15T08:08:27;3.67;;;1.63;;
64712;SDS011;51140;45.340;5.980;2023-04-15T08:10:52;2.60;;;1.13;;
64712;SDS011;51140;45.340;5.980;2023-04-15T08:13:17;2.38;;;1.00;;
64712;SDS011;51140;45.340;5.980;2023-04-15T08:15:43;3.55;;;1.20;;
64712;SDS011;51140;45.340;5.980;2023-04-15T08:18:09;1.77;;;0.60;;
64712;SDS011;51140;45.340;5.980;2023-04-15T08:20:35;2.10;;;0.77;;
64712;SDS011;51140;45.340;5.980;2023-04-15T08:23:01;3.10;;;1.00;;
64712;SDS011;51140;45.340;5.980;2023-04-15T08:25:27;2.65;;;1.00;;
64712;SDS011;51140;45.340;5.980;2023-04-15T08:27:54;2.78;;;1.00;;
64712;SDS011;51140;45.340;5.980;2023-04-15T08:30:20;8.27;;;3.15;;
64712;SDS011;51140;45.340;5.980;2023-04-15T08:32:46;9.38;;;4.93;;
64712;SDS011;51140;45.340;5.980;2023-04-15T08:35:11;9.43;;;4.70;;
64712;SDS011;51140;45.340;5.980;2023-04-15T08:37:37;11.55;;;6.40;;
64712;SDS011;51140;45.340;5.980;2023-04-15T08:40:03;4.97;;;2.10;;
64712;SDS011;51140;45.340;5.980;2023-04-15T08:42:34;7.20;;;3.72;;
64712;SDS011;51140;45.340;5.980;2023-04-15T08:45:02;4.75;;;2.28;;
64712;SDS011;51140;45.340;5.980;2023-04-15T08:47:29;6.22;;;3.33;;
64712;SDS011;51140;45.340;5.980;2023-04-15T08:49:56;6.20;;;3.33;;
64712;SDS011;51140;45.340;5.980;2023-04-15T08:52:23;6.47;;;3.17;;
64712;SDS011;51140;45.340;5.980;2023-04-15T08:54:50;5.20;;;2.92;;
64712;SDS011;51140;45.340;5.980;2023-04-15T08:57:22;6.15;;;3.42;;
64712;SDS011;51140;45.340;5.980;2023-04-15T08:59:52;10.50;;;4.20;;
64712;SDS011;51140;45.340;5.980;2023-04-15T09:02:19;6.40;;;3.90;;
64712;SDS011;51140;45.340;5.980;2023-04-15T09:04:46;3.85;;;1.45;;
64712;SDS011;51140;45.340;5.980;2023-04-15T09:07:11;2.17;;;1.00;;
64712;SDS011;51140;45.340;5.980;2023-04-15T09:09:36;2.80;;;0.50;;
64712;SDS011;51140;45.340;5.980;2023-04-15T09:12:04;0.80;;;0.40;;
64712;SDS011;51140;45.340;5.980;2023-04-15T09:14:29;0.98;;;0.40;;
64712;SDS011;51140;45.340;5.980;2023-04-15T09:16:59;1.27;;;0.60;;
64712;SDS011;51140;45.340;5.980;2023-04-15T09:19:25;3.70;;;1.35;;
64712;SDS011;51140;45.340;5.980;2023-04-15T09:21:56;6.40;;;1.63;;
64712;SDS011;51140;45.340;5.980;2023-04-15T09:24:22;4.68;;;1.20;;
64712;SDS011;51140;45.340;5.980;2023-04-15T09:26:51;2.92;;;1.33;;
64712;SDS011;51140;45.340;5.980;2023-04-15T09:29:18;2.40;;;1.00;;
64712;SDS011;51140;45.340;5.980;2023-04-15T09:31:43;4.15;;;1.30;;
64712;SDS011;51140;45.340;5.980;2023-04-15T09:34:09;4.88;;;2.22;;
64712;SDS011;51140;45.340;5.980;2023-04-15T09:36:37;8.70;;;4.70;;
64712;SDS011;51140;45.340;5.980;2023-04-15T09:39:13;7.50;;;4.60;;
64712;SDS011;51140;45.340;5.980;2023-04-15T09:41:38;7.85;;;4.53;;
64712;SDS011;51140;45.340;5.980;2023-04-15T09:44:05;3.20;;;1.20;;
64712;SDS011;51140;45.340;5.980;2023-04-15T09:46:43;3.60;;;0.85;;
64712;SDS011;51140;45.340;5.980;2023-04-15T09:49:10;5.20;;;2.47;;
64712;SDS011;51140;45.340;5.980;2023-04-15T09:51:37;3.88;;;1.88;;
64712;SDS011;51140;45.340;5.980;2023-04-15T09:54:03;7.15;;;3.30;;
64712;SDS011;51140;45.340;5.980;2023-04-15T09:56:36;5.93;;;2.50;;
64712;SDS011;51140;45.340;5.980;2023-04-15T09:59:04;4.80;;;2.17;;
64712;SDS011;51140;45.340;5.980;2023-04-15T10:01:30;5.40;;;2.00;;
64712;SDS011;51140;45.340;5.980;2023-04-15T10:03:55;4.30;;;1.63;;
64712;SDS011;51140;45.340;5.980;2023-04-15T10:06:22;4.75;;;2.13;;
64712;SDS011;51140;45.340;5.980;2023-04-15T10:08:50;7.97;;;4.07;;
64712;SDS011;51140;45.340;5.980;2023-04-15T10:11:17;6.75;;;3.00;;
64712;SDS011;51140;45.340;5.980;2023-04-15T10:13:43;4.47;;;1.30;;
64712;SDS011;51140;45.340;5.980;2023-04-15T10:16:14;5.00;;;1.80;;
64712;SDS011;51140;45.340;5.980;2023-04-15T10:18:44;2.83;;;0.80;;
64712;SDS011;51140;45.340;5.980;2023-04-15T10:21:11;2.22;;;0.40;;
64712;SDS011;51140;45.340;5.980;2023-04-15T10:23:42;3.90;;;1.67;;
64712;SDS011;51140;45.340;5.980;2023-04-15T10:26:09;2.72;;;1.25;;
64712;SDS011;51140;45.340;5.980;2023-04-15T10:28:37;2.83;;;1.20;;
64712;SDS011;51140;45.340;5.980;2023-04-15T10:31:02;2.38;;;0.80;;
64712;SDS011;51140;45.340;5.980;2023-04-15T10:33:30;2.60;;;0.60;;
64712;SDS011;51140;45.340;5.980;2023-04-15T10:35:56;16.48;;;8.55;;
64712;SDS011;51140;45.340;5.980;2023-04-15T10:41:25;9.77;;;7.10;;
64712;SDS011;51140;45.340;5.980;2023-04-15T10:46:33;7.15;;;4.20;;
64712;SDS011;51140;45.340;5.980;2023-04-15T10:49:09;7.68;;;3.83;;
64712;SDS011;51140;45.340;5.980;2023-04-15T10:51:40;6.57;;;2.38;;
64712;SDS011;51140;45.340;5.980;2023-04-15T10:54:14;9.13;;;3.83;;
64712;SDS011;51140;45.340;5.980;2023-04-15T10:56:41;7.97;;;3.25;;
64712;SDS011;51140;45.340;5.980;2023-04-15T10:59:08;8.55;;;4.38;;
64712;SDS011;51140;45.340;5.980;2023-04-15T11:12:43;6.10;;;2.50;;
64712;SDS011;51140;45.340;5.980;2023-04-15T11:18:14;5.75;;;2.33;;
64712;SDS011;51140;45.340;5.980;2023-04-15T11:20:43;5.70;;;1.80;;
64712;SDS011;51140;45.340;5.980;2023-04-15T11:23:14;6.43;;;3.58;;
64712;SDS011;51140;45.340;5.980;2023-04-15T11:25:41;5.53;;;1.77;;
64712;SDS011;51140;45.340;5.980;2023-04-15T11:28:08;4.75;;;2.40;;
64712;SDS011;51140;45.340;5.980;2023-04-15T11:30:34;20.17;;;9.23;;
64712;SDS011;51140;45.340;5.980;2023-04-15T11:33:08;6.55;;;2.80;;
64712;SDS011;51140;45.340;5.980;2023-04-15T11:35:35;3.65;;;1.40;;
64712;SDS011;51140;45.340;5.980;2023-04-15T11:38:04;15.10;;;7.50;;
64712;SDS011;51140;45.340;5.980;2023-04-15T11:40:32;3.53;;;1.30;;
64712;SDS011;51140;45.340;5.980;2023-04-15T11:43:06;3.17;;;1.30;;
64712;SDS011;51140;45.340;5.980;2023-04-15T11:45:31;5.25;;;2.03;;
64712;SDS011;51140;45.340;5.980;2023-04-15T11:48:07;2.65;;;0.75;;
64712;SDS011;51140;45.340;5.980;2023-04-15T11:50:34;8.30;;;4.20;;
64712;SDS011;51140;45.340;5.980;2023-04-15T11:53:02;28.08;;;15.35;;
64712;SDS011;51140;45.340;5.980;2023-04-15T11:55:29;1.92;;;0.85;;
64712;SDS011;51140;45.340;5.980;2023-04-15T12:00:41;1.50;;;0.70;;
64712;SDS011;51140;45.340;5.980;2023-04-15T12:03:12;2.85;;;0.60;;
64712;SDS011;51140;45.340;5.980;2023-04-15T12:11:13;1.83;;;0.70;;
64712;SDS011;51140;45.340;5.980;2023-04-15T12:13:43;0.93;;;0.40;;
64712;SDS011;51140;45.340;5.980;2023-04-15T12:16:09;1.23;;;0.50;;
64712;SDS011;51140;45.340;5.980;2023-04-15T12:18:38;1.48;;;0.50;;
64712;SDS011;51140;45.340;5.980;2023-04-15T12:21:07;5.90;;;2.60;;
64712;SDS011;51140;45.340;5.980;2023-04-15T12:23:36;12.27;;;6.60;;
64712;SDS011;51140;45.340;5.980;2023-04-15T12:26:05;7.47;;;2.20;;
64712;SDS011;51140;45.340;5.980;2023-04-15T12:28:33;1.67;;;0.70;;
64712;SDS011;51140;45.340;5.980;2023-04-15T12:31:05;1.98;;;0.60;;
64712;SDS011;51140;45.340;5.980;2023-04-15T12:33:32;1.35;;;0.70;;
64712;SDS011;51140;45.340;5.980;2023-04-15T12:35:58;3.05;;;0.82;;
64712;SDS011;51140;45.340;5.980;2023-04-15T12:38:24;0.93;;;0.52;;
64712;SDS011;51140;45.340;5.980;2023-04-15T12:40:49;1.80;;;0.43;;
64712;SDS011;51140;45.340;5.980;2023-04-15T12:43:15;0.45;;;0.30;;
64712;SDS011;51140;45.340;5.980;2023-04-15T12:45:40;1.30;;;0.40;;
64712;SDS011;51140;45.340;5.980;2023-04-15T12:48:06;0.65;;;0.40;;
64712;SDS011;51140;45.340;5.980;2023-04-15T12:50:33;0.20;;;0.20;;
64712;SDS011;51140;45.340;5.980;2023-04-15T12:52:59;1.88;;;0.50;;
64712;SDS011;51140;45.340;5.980;2023-04-15T12:55:24;1.90;;;0.60;;
64712;SDS011;51140;45.340;5.980;2023-04-15T12:57:50;1.15;;;0.55;;
64712;SDS011;51140;45.340;5.980;2023-04-15T13:00:15;1.77;;;0.52;;
64712;SDS011;51140;45.340;5.980;2023-04-15T13:02:42;2.67;;;0.90;;
64712;SDS011;51140;45.340;5.980;2023-04-15T13:05:08;1.20;;;0.60;;
64712;SDS011;51140;45.340;5.980;2023-04-15T13:07:34;2.05;;;0.70;;
64712;SDS011;51140;45.340;5.980;2023-04-15T13:09:59;1.23;;;0.50;;
64712;SDS011;51140;45.340;5.980;2023-04-15T13:12:25;1.08;;;0.50;;
64712;SDS011;51140;45.340;5.980;2023-04-15T13:14:51;1.95;;;0.88;;
64712;SDS011;51140;45.340;5.980;2023-04-15T13:17:17;1.40;;;0.68;;
64712;SDS011;51140;45.340;5.980;2023-04-15T13:19:44;2.42;;;0.82;;
64712;SDS011;51140;45.340;5.980;2023-04-15T13:22:10;2.25;;;0.70;;
64712;SDS011;51140;45.340;5.980;2023-04-15T13:24:36;2.47;;;0.85;;
64712;SDS011;51140;45.340;5.980;2023-04-15T13:27:03;2.10;;;0.68;;
64712;SDS011;51140;45.340;5.980;2023-04-15T13:29:28;2.55;;;0.90;;
64712;SDS011;51140;45.340;5.980;2023-04-15T13:31:54;2.95;;;0.90;;
64712;SDS011;51140;45.340;5.980;2023-04-15T13:34:20;1.77;;;0.70;;
64712;SDS011;51140;45.340;5.980;2023-04-15T13:36:45;1.30;;;0.65;;
64712;SDS011;51140;45.340;5.980;2023-04-15T13:39:11;1.35;;;0.60;;
64712;SDS011;51140;45.340;5.980;2023-04-15T13:41:36;1.27;;;0.70;;
64712;SDS011;51140;45.340;5.980;2023-04-15T13:44:02;2.30;;;0.50;;
64712;SDS011;51140;45.340;5.980;2023-04-15T13:46:29;2.88;;;0.90;;
64712;SDS011;51140;45.340;5.980;2023-04-15T13:48:54;3.53;;;1.35;;
64712;SDS011;51140;45.340;5.980;2023-04-15T13:51:19;1.15;;;0.63;;
64712;SDS011;51140;45.340;5.980;2023-04-15T13:53:45;0.45;;;0.35;;
64712;SDS011;51140;45.340;5.980;2023-04-15T13:56:10;1.45;;;0.40;;
64712;SDS011;51140;45.340;5.980;2023-04-15T13:58:37;1.15;;;0.40;;
64712;SDS011;51140;45.340;5.980;2023-04-15T14:01:02;0.68;;;0.35;;
64712;SDS011;51140;45.340;5.980;2023-04-15T14:03:28;0.90;;;0.45;;
64712;SDS011;51140;45.340;5.980;2023-04-15T14:05:54;0.93;;;0.40;;
64712;SDS011;51140;45.340;5.980;2023-04-15T14:08:21;0.82;;;0.40;;
64712;SDS011;51140;45.340;5.980;2023-04-15T14:10:47;1.42;;;0.50;;
64712;SDS011;51140;45.340;5.980;2023-04-15T14:13:13;0.77;;;0.30;;
64712;SDS011;51140;45.340;5.980;2023-04-15T14:15:39;1.73;;;0.60;;
64712;SDS011;51140;45.340;5.980;2023-04-15T14:18:05;2.28;;;0.60;;
64712;SDS011;51140;45.340;5.980;2023-04-15T14:20:31;1.83;;;0.55;;
64712;SDS011;51140;45.340;5.980;2023-04-15T14:22:56;2.58;;;0.95;;
64712;SDS011;51140;45.340;5.980;2023-04-15T14:25:22;3.40;;;1.02;;
64712;SDS011;51140;45.340;5.980;2023-04-15T14:27:47;2.95;;;0.70;;
64712;SDS011;51140;45.340;5.980;2023-04-15T14:30:12;2.17;;;0.80;;
64712;SDS011;51140;45.340;5.980;2023-04-15T14:32:38;3.53;;;0.98;;
64712;SDS011;51140;45.340;5.980;2023-04-15T14:35:03;4.07;;;0.80;;
64712;SDS011;51140;45.340;5.980;2023-04-15T14:37:29;1.63;;;0.52;;
64712;SDS011;51140;45.340;5.980;2023-04-15T14:39:54;1.13;;;0.60;;
64712;SDS011;51140;45.340;5.980;2023-04-15T14:42:20;1.75;;;0.50;;
64712;SDS011;51140;45.340;5.980;2023-04-15T14:44:45;1.27;;;0.57;;
64712;SDS011;51140;45.340;5.980;2023-04-15T14:47:11;1.90;;;0.88;;
64712;SDS011;51140;45.340;5.980;2023-04-15T14:49:37;0.95;;;0.60;;
64712;SDS011;51140;45.340;5.980;2023-04-15T14:52:02;2.50;;;0.60;;
64712;SDS011;51140;45.340;5.980;2023-04-15T14:54:28;1.25;;;0.60;;
64712;SDS011;51140;45.340;5.980;2023-04-15T14:56:53;3.15;;;0.65;;
64712;SDS011;51140;45.340;5.980;2023-04-15T14:59:20;3.00;;;0.82;;
64712;SDS011;51140;45.340;5.980;2023-04-15T15:01:45;1.25;;;0.57;;
64712;SDS011;51140;45.340;5.980;2023-04-15T15:04:11;2.15;;;0.65;;
64712;SDS011;51140;45.340;5.980;2023-04-15T15:06:37;2.53;;;0.60;;
64712;SDS011;51140;45.340;5.980;2023-04-15T15:09:03;1.73;;;0.73;;